sensor_id;sensor_type;location;lat;lon;timestamp;pressure;altitude;pressure_sealevel;temperature;humidity
34177;BME280;20450;49.074;9.158;2024-03-02T00:01:22;98648.84;;;8.23;86.28
34177;BME280;20450;49.074;9.158;2024-03-02T00:03:49;98645.00;;;8.12;86.60
34177;BME280;20450;49.074;9.158;2024-03-02T00:06:19;98647.16;;;7.85;87.63
34177;BME280;20450;49.074;9.158;2024-03-02T00:08:46;98640.78;;;7.80;88.47
34177;BME280;20450;49.074;9.158;2024-03-02T00:11:15;98646.09;;;7.86;89.08
34177;BME280;20450;49.074;9.158;2024-03-02T00:13:42;98631.59;;;7.87;89.45
34177;BME280;20450;49.074;9.158;2024-03-02T00:16:09;98636.63;;;7.84;89.42
34177;BME280;20450;49.074;9.158;2024-03-02T00:18:37;98632.47;;;7.81;89.91
34177;BME280;20450;49.074;9.158;2024-03-02T00:21:06;98638.03;;;7.86;89.41
34177;BME280;20450;49.074;9.158;2024-03-02T00:23:33;98634.91;;;7.89;88.72
34177;BME280;20450;49.074;9.158;2024-03-02T00:26:01;98629.81;;;7.99;88.67
34177;BME280;20450;49.074;9.158;2024-03-02T00:28:31;98637.16;;;8.11;88.37
34177;BME280;20450;49.074;9.158;2024-03-02T00:31:02;98636.06;;;8.18;88.58
34177;BME280;20450;49.074;9.158;2024-03-02T00:33:32;98639.28;;;8.27;87.92
34177;BME280;20450;49.074;9.158;2024-03-02T00:36:01;98637.34;;;8.34;87.49
34177;BME280;20450;49.074;9.158;2024-03-02T00:38:29;98637.25;;;8.40;87.02
34177;BME280;20450;49.074;9.158;2024-03-02T00:40:58;98638.84;;;8.30;86.75
34177;BME280;20450;49.074;9.158;2024-03-02T00:43:41;98640.88;;;8.09;87.76
34177;BME280;20450;49.074;9.158;2024-03-02T00:46:16;98641.66;;;8.17;87.01
34177;BME280;20450;49.074;9.158;2024-03-02T00:48:53;98643.84;;;8.26;86.75
34177;BME280;20450;49.074;9.158;2024-03-02T00:51:22;98639.66;;;8.30;86.38
34177;BME280;20450;49.074;9.158;2024-03-02T00:53:51;98639.56;;;8.37;85.76
34177;BME280;20450;49.074;9.158;2024-03-02T00:56:19;98637.44;;;8.27;85.18
34177;BME280;20450;49.074;9.158;2024-03-02T00:58:47;98631.34;;;8.14;87.08
34177;BME280;20450;49.074;9.158;2024-03-02T01:01:14;98639.88;;;7.86;87.82
34177;BME280;20450;49.074;9.158;2024-03-02T01:03:41;98635.88;;;7.95;87.34
34177;BME280;20450;49.074;9.158;2024-03-02T01:06:09;98634.00;;;7.95;86.61
34177;BME280;20450;49.074;9.158;2024-03-02T01:08:36;98636.69;;;7.95;86.68
34177;BME280;20450;49.074;9.158;2024-03-02T01:11:04;98637.81;;;7.88;87.18
34177;BME280;20450;49.074;9.158;2024-03-02T01:13:31;98641.09;;;7.90;86.83
34177;BME280;20450;49.074;9.158;2024-03-02T01:16:01;98632.81;;;7.91;86.61
34177;BME280;20450;49.074;9.158;2024-03-02T01:18:28;98626.97;;;7.94;85.94
34177;BME280;20450;49.074;9.158;2024-03-02T01:20:55;98628.63;;;7.95;85.87
34177;BME280;20450;49.074;9.158;2024-03-02T01:23:23;98631.78;;;7.92;85.86
34177;BME280;20450;49.074;9.158;2024-03-02T01:25:50;98637.88;;;7.99;85.27
34177;BME280;20450;49.074;9.158;2024-03-02T01:28:18;98631.00;;;8.03;84.92
34177;BME280;20450;49.074;9.158;2024-03-02T01:30:45;98638.84;;;8.05;84.63
34177;BME280;20450;49.074;9.158;2024-03-02T01:33:14;98637.16;;;8.11;84.57
34177;BME280;20450;49.074;9.158;2024-03-02T01:35:41;98637.06;;;8.17;83.81
34177;BME280;20450;49.074;9.158;2024-03-02T01:38:08;98634.16;;;8.19;83.72
34177;BME280;20450;49.074;9.158;2024-03-02T01:40:36;98632.38;;;8.13;83.26
34177;BME280;20450;49.074;9.158;2024-03-02T01:43:04;98627.75;;;8.01;83.91
34177;BME280;20450;49.074;9.158;2024-03-02T01:45:31;98617.50;;;8.10;83.59
34177;BME280;20450;49.074;9.158;2024-03-02T01:47:59;98634.31;;;8.05;84.65
34177;BME280;20450;49.074;9.158;2024-03-02T01:50:29;98625.97;;;8.14;84.25
34177;BME280;20450;49.074;9.158;2024-03-02T01:52:58;98616.75;;;8.03;84.14
34177;BME280;20450;49.074;9.158;2024-03-02T01:55:26;98617.88;;;7.95;84.69
34177;BME280;20450;49.074;9.158;2024-03-02T01:57:53;98616.22;;;7.94;84.31
34177;BME280;20450;49.074;9.158;2024-03-02T02:00:20;98623.78;;;8.04;84.14
34177;BME280;20450;49.074;9.158;2024-03-02T02:02:48;98618.41;;;8.04;83.95
34177;BME280;20450;49.074;9.158;2024-03-02T02:05:15;98612.28;;;7.97;83.17
34177;BME280;20450;49.074;9.158;2024-03-02T02:07:44;98610.19;;;7.81;83.40
34177;BME280;20450;49.074;9.158;2024-03-02T02:10:12;98616.22;;;7.94;83.46
34177;BME280;20450;49.074;9.158;2024-03-02T02:12:39;98622.28;;;8.08;82.84
34177;BME280;20450;49.074;9.158;2024-03-02T02:15:22;98618.47;;;8.16;82.72
34177;BME280;20450;49.074;9.158;2024-03-02T02:17:52;98614.09;;;8.21;82.18
34177;BME280;20450;49.074;9.158;2024-03-02T02:20:19;98613.97;;;8.09;82.01
34177;BME280;20450;49.074;9.158;2024-03-02T02:22:58;98609.06;;;7.88;82.98
34177;BME280;20450;49.074;9.158;2024-03-02T02:25:26;98609.69;;;7.66;83.08
34177;BME280;20450;49.074;9.158;2024-03-02T02:27:53;98607.94;;;7.53;84.05
34177;BME280;20450;49.074;9.158;2024-03-02T02:30:22;98610.16;;;7.63;83.94
34177;BME280;20450;49.074;9.158;2024-03-02T02:32:51;98603.22;;;7.73;83.31
34177;BME280;20450;49.074;9.158;2024-03-02T02:35:18;98597.75;;;7.80;82.80
34177;BME280;20450;49.074;9.158;2024-03-02T02:37:46;98593.22;;;7.80;83.12
34177;BME280;20450;49.074;9.158;2024-03-02T02:40:16;98594.84;;;7.81;83.59
34177;BME280;20450;49.074;9.158;2024-03-02T02:42:43;98596.19;;;7.72;83.76
34177;BME280;20450;49.074;9.158;2024-03-02T02:45:10;98586.47;;;7.71;83.23
34177;BME280;20450;49.074;9.158;2024-03-02T02:47:37;98578.56;;;7.58;84.18
34177;BME280;20450;49.074;9.158;2024-03-02T02:50:07;98585.97;;;7.63;83.87
34177;BME280;20450;49.074;9.158;2024-03-02T02:52:35;98587.97;;;7.67;83.36
34177;BME280;20450;49.074;9.158;2024-03-02T02:55:05;98573.31;;;7.63;83.32
34177;BME280;20450;49.074;9.158;2024-03-02T02:57:35;98583.84;;;7.65;83.13
34177;BME280;20450;49.074;9.158;2024-03-02T03:00:04;98590.38;;;7.75;82.22
34177;BME280;20450;49.074;9.158;2024-03-02T03:02:32;98582.16;;;7.70;82.07
34177;BME280;20450;49.074;9.158;2024-03-02T03:04:59;98584.97;;;7.75;81.91
34177;BME280;20450;49.074;9.158;2024-03-02T03:07:26;98582.91;;;7.77;81.73
34177;BME280;20450;49.074;9.158;2024-03-02T03:09:53;98584.25;;;7.68;81.42
34177;BME280;20450;49.074;9.158;2024-03-02T03:12:20;98586.03;;;7.74;82.57
34177;BME280;20450;49.074;9.158;2024-03-02T03:14:48;98595.47;;;7.59;82.41
34177;BME280;20450;49.074;9.158;2024-03-02T03:17:15;98591.81;;;7.53;82.96
34177;BME280;20450;49.074;9.158;2024-03-02T03:19:42;98594.13;;;7.50;82.51
34177;BME280;20450;49.074;9.158;2024-03-02T03:22:10;98599.88;;;7.53;82.91
34177;BME280;20450;49.074;9.158;2024-03-02T03:24:37;98594.81;;;7.45;83.02
34177;BME280;20450;49.074;9.158;2024-03-02T03:27:04;98597.88;;;7.24;83.45
34177;BME280;20450;49.074;9.158;2024-03-02T03:29:31;98598.84;;;7.05;83.92
34177;BME280;20450;49.074;9.158;2024-03-02T03:32:00;98599.97;;;6.91;84.24
34177;BME280;20450;49.074;9.158;2024-03-02T03:34:27;98594.22;;;6.88;85.19
34177;BME280;20450;49.074;9.158;2024-03-02T03:36:54;98601.69;;;6.86;85.02
34177;BME280;20450;49.074;9.158;2024-03-02T03:39:21;98598.13;;;6.92;84.31
34177;BME280;20450;49.074;9.158;2024-03-02T03:41:48;98596.88;;;6.94;84.30
34177;BME280;20450;49.074;9.158;2024-03-02T03:44:15;98596.97;;;7.06;84.77
34177;BME280;20450;49.074;9.158;2024-03-02T03:46:42;98593.09;;;7.02;83.71
34177;BME280;20450;49.074;9.158;2024-03-02T03:49:10;98599.63;;;7.12;83.78
34177;BME280;20450;49.074;9.158;2024-03-02T03:51:37;98592.59;;;7.11;83.69
34177;BME280;20450;49.074;9.158;2024-03-02T03:54:04;98594.03;;;7.14;83.08
34177;BME280;20450;49.074;9.158;2024-03-02T03:56:31;98592.72;;;7.23;83.17
34177;BME280;20450;49.074;9.158;2024-03-02T03:58:58;98593.97;;;7.20;83.82
34177;BME280;20450;49.074;9.158;2024-03-02T04:01:25;98583.34;;;7.32;82.72
34177;BME280;20450;49.074;9.158;2024-03-02T04:03:52;98587.72;;;7.26;83.47
34177;BME280;20450;49.074;9.158;2024-03-02T04:06:20;98593.97;;;7.20;83.29
34177;BME280;20450;49.074;9.158;2024-03-02T04:08:47;98593.75;;;7.22;83.07
34177;BME280;20450;49.074;9.158;2024-03-02T04:11:14;98598.31;;;7.21;83.92
34177;BME280;20450;49.074;9.158;2024-03-02T04:13:41;98592.84;;;7.34;82.65
34177;BME280;20450;49.074;9.158;2024-03-02T04:16:08;98594.84;;;7.39;83.16
34177;BME280;20450;49.074;9.158;2024-03-02T04:18:35;98593.31;;;7.25;83.10
34177;BME280;20450;49.074;9.158;2024-03-02T04:21:02;98600.59;;;7.18;83.37
34177;BME280;20450;49.074;9.158;2024-03-02T04:23:31;98597.91;;;7.18;83.55
34177;BME280;20450;49.074;9.158;2024-03-02T04:25:58;98597.28;;;7.22;83.45
34177;BME280;20450;49.074;9.158;2024-03-02T04:28:25;98602.41;;;7.24;83.18
34177;BME280;20450;49.074;9.158;2024-03-02T04:30:52;98598.75;;;7.18;82.96
34177;BME280;20450;49.074;9.158;2024-03-02T04:33:19;98599.94;;;7.22;83.43
34177;BME280;20450;49.074;9.158;2024-03-02T04:35:46;98587.78;;;7.20;83.41
34177;BME280;20450;49.074;9.158;2024-03-02T04:38:13;98596.22;;;7.23;83.20
34177;BME280;20450;49.074;9.158;2024-03-02T04:40:41;98595.69;;;7.39;83.01
34177;BME280;20450;49.074;9.158;2024-03-02T04:43:08;98589.72;;;7.37;83.20
34177;BME280;20450;49.074;9.158;2024-03-02T04:45:37;98591.28;;;7.45;82.54
34177;BME280;20450;49.074;9.158;2024-03-02T04:48:05;98591.50;;;7.43;82.43
34177;BME280;20450;49.074;9.158;2024-03-02T04:50:33;98594.84;;;7.39;82.49
34177;BME280;20450;49.074;9.158;2024-03-02T04:53:00;98591.34;;;7.38;82.58
34177;BME280;20450;49.074;9.158;2024-03-02T04:55:27;98592.94;;;7.21;83.29
34177;BME280;20450;49.074;9.158;2024-03-02T04:57:55;98594.03;;;7.38;82.44
34177;BME280;20450;49.074;9.158;2024-03-02T05:00:22;98593.59;;;7.41;81.90
34177;BME280;20450;49.074;9.158;2024-03-02T05:02:49;98592.16;;;7.39;82.64
34177;BME280;20450;49.074;9.158;2024-03-02T05:05:16;98588.31;;;7.53;82.37
34177;BME280;20450;49.074;9.158;2024-03-02T05:07:43;98596.94;;;7.61;81.62
34177;BME280;20450;49.074;9.158;2024-03-02T05:10:10;98588.97;;;7.48;82.64
34177;BME280;20450;49.074;9.158;2024-03-02T05:12:37;98596.50;;;7.40;82.75
34177;BME280;20450;49.074;9.158;2024-03-02T05:15:07;98591.94;;;7.40;82.56
34177;BME280;20450;49.074;9.158;2024-03-02T05:17:34;98593.28;;;7.31;83.01
34177;BME280;20450;49.074;9.158;2024-03-02T05:20:01;98600.22;;;7.39;82.64
34177;BME280;20450;49.074;9.158;2024-03-02T05:22:28;98595.84;;;7.44;81.84
34177;BME280;20450;49.074;9.158;2024-03-02T05:24:55;98594.03;;;7.38;82.86
34177;BME280;20450;49.074;9.158;2024-03-02T05:27:22;98591.44;;;7.50;82.99
34177;BME280;20450;49.074;9.158;2024-03-02T05:29:49;98595.69;;;7.57;81.54
34177;BME280;20450;49.074;9.158;2024-03-02T05:32:17;98598.19;;;7.34;82.67
34177;BME280;20450;49.074;9.158;2024-03-02T05:34:44;98594.16;;;7.25;83.32
34177;BME280;20450;49.074;9.158;2024-03-02T05:37:11;98610.09;;;7.20;83.33
34177;BME280;20450;49.074;9.158;2024-03-02T05:39:38;98608.94;;;7.34;83.11
34177;BME280;20450;49.074;9.158;2024-03-02T05:42:05;98602.03;;;7.20;83.41
34177;BME280;20450;49.074;9.158;2024-03-02T05:44:32;98604.72;;;7.20;83.71
34177;BME280;20450;49.074;9.158;2024-03-02T05:46:59;98605.72;;;7.26;83.07
34177;BME280;20450;49.074;9.158;2024-03-02T05:49:27;98613.13;;;7.30;83.43
34177;BME280;20450;49.074;9.158;2024-03-02T05:51:54;98612.25;;;7.36;84.14
34177;BME280;20450;49.074;9.158;2024-03-02T05:54:22;98605.25;;;7.53;86.23
34177;BME280;20450;49.074;9.158;2024-03-02T05:56:48;98612.75;;;7.69;87.16
34177;BME280;20450;49.074;9.158;2024-03-02T05:59:15;98611.16;;;7.86;88.12
34177;BME280;20450;49.074;9.158;2024-03-02T06:01:43;98613.69;;;7.99;89.08
34177;BME280;20450;49.074;9.158;2024-03-02T06:04:11;98613.97;;;8.09;88.55
34177;BME280;20450;49.074;9.158;2024-03-02T06:06:40;98614.59;;;8.12;88.41
34177;BME280;20450;49.074;9.158;2024-03-02T06:09:08;98624.53;;;8.11;86.10
34177;BME280;20450;49.074;9.158;2024-03-02T06:11:37;98616.34;;;7.81;82.74
34177;BME280;20450;49.074;9.158;2024-03-02T06:14:04;98631.53;;;7.51;83.18
34177;BME280;20450;49.074;9.158;2024-03-02T06:16:33;98628.16;;;7.56;82.66
34177;BME280;20450;49.074;9.158;2024-03-02T06:19:00;98623.16;;;7.66;83.03
34177;BME280;20450;49.074;9.158;2024-03-02T06:21:28;98632.03;;;7.84;84.24
34177;BME280;20450;49.074;9.158;2024-03-02T06:23:57;98630.53;;;7.70;82.00
34177;BME280;20450;49.074;9.158;2024-03-02T06:26:24;98629.50;;;7.47;82.47
34177;BME280;20450;49.074;9.158;2024-03-02T06:28:52;98629.50;;;7.71;83.62
34177;BME280;20450;49.074;9.158;2024-03-02T06:31:19;98621.47;;;7.89;83.31
34177;BME280;20450;49.074;9.158;2024-03-02T06:33:46;98624.66;;;8.23;86.94
34177;BME280;20450;49.074;9.158;2024-03-02T06:36:13;98617.09;;;8.31;82.63
34177;BME280;20450;49.074;9.158;2024-03-02T06:38:40;98615.06;;;8.45;82.07
34177;BME280;20450;49.074;9.158;2024-03-02T06:41:10;98619.22;;;8.59;82.34
34177;BME280;20450;49.074;9.158;2024-03-02T06:43:37;98624.47;;;8.54;79.77
34177;BME280;20450;49.074;9.158;2024-03-02T06:46:04;98621.66;;;8.60;80.96
34177;BME280;20450;49.074;9.158;2024-03-02T06:48:31;98627.59;;;8.69;80.99
34177;BME280;20450;49.074;9.158;2024-03-02T06:50:58;98629.25;;;8.52;78.68
34177;BME280;20450;49.074;9.158;2024-03-02T06:53:25;98624.31;;;8.31;79.49
34177;BME280;20450;49.074;9.158;2024-03-02T06:55:52;98638.19;;;8.09;80.80
34177;BME280;20450;49.074;9.158;2024-03-02T06:58:20;98637.16;;;8.11;80.58
34177;BME280;20450;49.074;9.158;2024-03-02T07:00:47;98645.38;;;8.16;80.21
34177;BME280;20450;49.074;9.158;2024-03-02T07:03:14;98643.59;;;8.28;80.32
34177;BME280;20450;49.074;9.158;2024-03-02T07:05:41;98639.13;;;8.40;79.23
34177;BME280;20450;49.074;9.158;2024-03-02T07:08:09;98643.53;;;8.34;78.99
34177;BME280;20450;49.074;9.158;2024-03-02T07:10:36;98644.22;;;8.48;78.96
34177;BME280;20450;49.074;9.158;2024-03-02T07:13:03;98643.75;;;8.51;78.84
34177;BME280;20450;49.074;9.158;2024-03-02T07:15:32;98645.47;;;8.45;79.07
34177;BME280;20450;49.074;9.158;2024-03-02T07:17:58;98639.03;;;8.64;78.58
34177;BME280;20450;49.074;9.158;2024-03-02T07:20:25;98631.00;;;9.05;77.84
34177;BME280;20450;49.074;9.158;2024-03-02T07:22:52;98633.56;;;9.41;76.43
34177;BME280;20450;49.074;9.158;2024-03-02T07:25:19;98633.13;;;9.79;75.19
34177;BME280;20450;49.074;9.158;2024-03-02T07:27:49;98637.94;;;9.65;74.09
34177;BME280;20450;49.074;9.158;2024-03-02T07:30:17;98635.97;;;10.07;73.37
34177;BME280;20450;49.074;9.158;2024-03-02T07:32:46;98648.66;;;10.46;72.35
34177;BME280;20450;49.074;9.158;2024-03-02T07:35:13;98646.78;;;10.86;71.02
34177;BME280;20450;49.074;9.158;2024-03-02T07:37:41;98647.31;;;11.00;70.31
34177;BME280;20450;49.074;9.158;2024-03-02T07:40:09;98636.75;;;10.70;70.44
34177;BME280;20450;49.074;9.158;2024-03-02T07:42:37;98637.63;;;10.59;70.82
34177;BME280;20450;49.074;9.158;2024-03-02T07:45:05;98640.03;;;10.21;71.03
34177;BME280;20450;49.074;9.158;2024-03-02T07:47:33;98647.41;;;9.68;73.63
34177;BME280;20450;49.074;9.158;2024-03-02T07:50:02;98640.13;;;9.04;76.46
34177;BME280;20450;49.074;9.158;2024-03-02T07:52:30;98645.66;;;8.80;78.32
34177;BME280;20450;49.074;9.158;2024-03-02T07:54:57;98644.31;;;8.71;78.58
34177;BME280;20450;49.074;9.158;2024-03-02T07:57:24;98649.38;;;8.49;79.05
34177;BME280;20450;49.074;9.158;2024-03-02T07:59:51;98657.22;;;8.51;79.31
34177;BME280;20450;49.074;9.158;2024-03-02T08:02:19;98656.16;;;8.52;79.59
34177;BME280;20450;49.074;9.158;2024-03-02T08:04:46;98647.47;;;8.50;79.19
34177;BME280;20450;49.074;9.158;2024-03-02T08:07:15;98658.25;;;8.50;79.37
34177;BME280;20450;49.074;9.158;2024-03-02T08:09:42;98655.63;;;8.61;78.50
34177;BME280;20450;49.074;9.158;2024-03-02T08:12:09;98652.94;;;8.61;78.35
34177;BME280;20450;49.074;9.158;2024-03-02T08:14:37;98652.34;;;8.89;77.46
34177;BME280;20450;49.074;9.158;2024-03-02T08:17:04;98648.97;;;8.93;76.91
34177;BME280;20450;49.074;9.158;2024-03-02T08:19:31;98640.81;;;8.70;77.24
34177;BME280;20450;49.074;9.158;2024-03-02T08:21:58;98646.06;;;8.95;76.53
34177;BME280;20450;49.074;9.158;2024-03-02T08:24:27;98651.34;;;9.42;75.18
34177;BME280;20450;49.074;9.158;2024-03-02T08:26:54;98651.50;;;9.70;73.54
34177;BME280;20450;49.074;9.158;2024-03-02T08:29:21;98646.81;;;9.54;74.04
34177;BME280;20450;49.074;9.158;2024-03-02T08:31:48;98649.25;;;9.33;74.65
34177;BME280;20450;49.074;9.158;2024-03-02T08:34:15;98651.44;;;9.36;74.45
34177;BME280;20450;49.074;9.158;2024-03-02T08:36:42;98646.34;;;9.46;73.97
34177;BME280;20450;49.074;9.158;2024-03-02T08:39:09;98648.84;;;9.93;72.30
34177;BME280;20450;49.074;9.158;2024-03-02T08:41:38;98642.63;;;10.67;70.83
34177;BME280;20450;49.074;9.158;2024-03-02T08:44:05;98646.56;;;11.32;68.60
34177;BME280;20450;49.074;9.158;2024-03-02T08:46:32;98645.94;;;12.46;64.97
34177;BME280;20450;49.074;9.158;2024-03-02T08:48:59;98641.31;;;13.38;63.03
34177;BME280;20450;49.074;9.158;2024-03-02T08:51:26;98639.22;;;14.13;59.64
34177;BME280;20450;49.074;9.158;2024-03-02T08:53:53;98639.63;;;14.83;57.25
34177;BME280;20450;49.074;9.158;2024-03-02T08:56:20;98652.97;;;14.85;54.13
34177;BME280;20450;49.074;9.158;2024-03-02T08:58:49;98658.75;;;15.08;53.49
34177;BME280;20450;49.074;9.158;2024-03-02T09:01:17;98644.84;;;14.38;55.76
34177;BME280;20450;49.074;9.158;2024-03-02T09:03:45;98643.22;;;15.04;55.24
34177;BME280;20450;49.074;9.158;2024-03-02T09:06:12;98656.16;;;15.63;53.57
34177;BME280;20450;49.074;9.158;2024-03-02T09:08:39;98664.34;;;15.79;51.72
34177;BME280;20450;49.074;9.158;2024-03-02T09:11:07;98647.81;;;14.93;52.91
34177;BME280;20450;49.074;9.158;2024-03-02T09:13:34;98637.22;;;13.62;56.12
34177;BME280;20450;49.074;9.158;2024-03-02T09:16:04;98649.38;;;14.74;55.42
34177;BME280;20450;49.074;9.158;2024-03-02T09:18:31;98663.50;;;15.88;52.33
34177;BME280;20450;49.074;9.158;2024-03-02T09:20:58;98656.94;;;14.62;52.40
34177;BME280;20450;49.074;9.158;2024-03-02T09:23:25;98649.06;;;15.57;51.45
34177;BME280;20450;49.074;9.158;2024-03-02T09:25:52;98664.81;;;16.46;49.58
34177;BME280;20450;49.074;9.158;2024-03-02T09:28:19;98693.13;;;17.33;46.32
34177;BME280;20450;49.074;9.158;2024-03-02T09:30:46;98693.97;;;17.29;45.50
34177;BME280;20450;49.074;9.158;2024-03-02T09:33:14;98689.94;;;17.16;45.87
34177;BME280;20450;49.074;9.158;2024-03-02T09:35:44;98694.91;;;17.09;45.42
34177;BME280;20450;49.074;9.158;2024-03-02T09:38:11;98690.66;;;16.68;45.57
34177;BME280;20450;49.074;9.158;2024-03-02T09:40:37;98672.81;;;17.06;46.82
34177;BME280;20450;49.074;9.158;2024-03-02T09:43:05;98689.34;;;18.12;44.32
34177;BME280;20450;49.074;9.158;2024-03-02T09:45:32;98701.50;;;18.24;42.78
34177;BME280;20450;49.074;9.158;2024-03-02T09:48:00;98661.31;;;15.70;46.83
34177;BME280;20450;49.074;9.158;2024-03-02T09:50:28;98639.22;;;15.26;49.65
34177;BME280;20450;49.074;9.158;2024-03-02T09:52:56;98631.53;;;15.03;49.77
34177;BME280;20450;49.074;9.158;2024-03-02T09:55:23;98634.84;;;14.54;52.22
34177;BME280;20450;49.074;9.158;2024-03-02T09:57:50;98650.63;;;15.33;49.68
34177;BME280;20450;49.074;9.158;2024-03-02T10:00:18;98669.72;;;16.54;46.73
34177;BME280;20450;49.074;9.158;2024-03-02T10:02:45;98654.19;;;16.54;47.00
34177;BME280;20450;49.074;9.158;2024-03-02T10:05:12;98655.06;;;15.69;48.17
34177;BME280;20450;49.074;9.158;2024-03-02T10:08:00;98635.63;;;15.21;49.66
34177;BME280;20450;49.074;9.158;2024-03-02T10:10:36;98628.91;;;15.58;48.87
34177;BME280;20450;49.074;9.158;2024-03-02T10:13:04;98631.38;;;15.75;49.21
34177;BME280;20450;49.074;9.158;2024-03-02T10:15:31;98632.66;;;16.48;47.30
34177;BME280;20450;49.074;9.158;2024-03-02T10:17:58;98649.53;;;16.40;46.63
34177;BME280;20450;49.074;9.158;2024-03-02T10:20:27;98634.22;;;16.74;46.90
34177;BME280;20450;49.074;9.158;2024-03-02T10:22:55;98644.34;;;16.53;46.02
34177;BME280;20450;49.074;9.158;2024-03-02T10:25:31;98632.41;;;16.29;46.85
34177;BME280;20450;49.074;9.158;2024-03-02T10:28:16;98614.53;;;16.82;47.48
34177;BME280;20450;49.074;9.158;2024-03-02T10:30:47;98630.03;;;17.40;46.49
34177;BME280;20450;49.074;9.158;2024-03-02T10:33:15;98632.63;;;16.43;46.65
34177;BME280;20450;49.074;9.158;2024-03-02T10:35:44;98620.75;;;15.99;47.83
34177;BME280;20450;49.074;9.158;2024-03-02T10:38:11;98611.59;;;16.68;47.33
34177;BME280;20450;49.074;9.158;2024-03-02T10:40:40;98631.53;;;17.95;45.62
34177;BME280;20450;49.074;9.158;2024-03-02T10:43:07;98636.47;;;18.50;42.82
34177;BME280;20450;49.074;9.158;2024-03-02T10:45:35;98640.91;;;17.50;44.14
34177;BME280;20450;49.074;9.158;2024-03-02T10:48:03;98624.59;;;16.91;45.41
34177;BME280;20450;49.074;9.158;2024-03-02T10:50:31;98600.38;;;17.23;45.99
34177;BME280;20450;49.074;9.158;2024-03-02T10:52:59;98641.63;;;19.78;41.11
34177;BME280;20450;49.074;9.158;2024-03-02T10:55:26;98659.03;;;18.65;41.06
34177;BME280;20450;49.074;9.158;2024-03-02T10:57:55;98645.75;;;17.97;41.43
34177;BME280;20450;49.074;9.158;2024-03-02T11:00:32;98631.38;;;18.43;40.55
34177;BME280;20450;49.074;9.158;2024-03-02T11:03:05;98624.34;;;18.04;41.88
34177;BME280;20450;49.074;9.158;2024-03-02T11:05:36;98626.50;;;18.64;40.55
34177;BME280;20450;49.074;9.158;2024-03-02T11:08:07;98639.31;;;20.76;38.28
34177;BME280;20450;49.074;9.158;2024-03-02T11:10:40;98678.34;;;20.46;36.58
34177;BME280;20450;49.074;9.158;2024-03-02T11:13:13;98667.84;;;20.48;37.38
34177;BME280;20450;49.074;9.158;2024-03-02T11:15:43;98631.44;;;18.62;40.39
34177;BME280;20450;49.074;9.158;2024-03-02T11:18:11;98636.13;;;18.80;39.56
34177;BME280;20450;49.074;9.158;2024-03-02T11:20:40;98639.56;;;18.90;38.80
34177;BME280;20450;49.074;9.158;2024-03-02T11:23:09;98627.31;;;19.06;39.36
34177;BME280;20450;49.074;9.158;2024-03-02T11:25:36;98632.13;;;19.57;38.31
34177;BME280;20450;49.074;9.158;2024-03-02T11:28:05;98641.56;;;21.01;35.76
34177;BME280;20450;49.074;9.158;2024-03-02T11:30:53;98662.56;;;21.46;34.78
34177;BME280;20450;49.074;9.158;2024-03-02T11:33:25;98660.66;;;21.82;35.16
34177;BME280;20450;49.074;9.158;2024-03-02T11:35:53;98656.47;;;21.85;34.63
34177;BME280;20450;49.074;9.158;2024-03-02T11:38:22;98657.56;;;19.76;36.50
34177;BME280;20450;49.074;9.158;2024-03-02T11:40:49;98652.66;;;20.82;35.03
34177;BME280;20450;49.074;9.158;2024-03-02T11:43:16;98644.00;;;20.89;34.96
34177;BME280;20450;49.074;9.158;2024-03-02T11:45:43;98643.91;;;21.21;34.28
34177;BME280;20450;49.074;9.158;2024-03-02T11:48:14;98638.78;;;21.64;34.06
34177;BME280;20450;49.074;9.158;2024-03-02T11:50:46;98636.16;;;21.37;33.89
34177;BME280;20450;49.074;9.158;2024-03-02T11:53:16;98640.91;;;22.02;33.19
34177;BME280;20450;49.074;9.158;2024-03-02T11:55:45;98641.13;;;20.67;34.34
34177;BME280;20450;49.074;9.158;2024-03-02T11:58:12;98602.09;;;19.46;36.78
34177;BME280;20450;49.074;9.158;2024-03-02T12:00:40;98588.19;;;20.26;35.36
34177;BME280;20450;49.074;9.158;2024-03-02T12:03:08;98536.97;;;18.22;40.36
34177;BME280;20450;49.074;9.158;2024-03-02T12:05:37;98515.81;;;18.56;40.75
34177;BME280;20450;49.074;9.158;2024-03-02T12:08:05;98517.69;;;17.62;40.42
34177;BME280;20450;49.074;9.158;2024-03-02T12:10:34;98485.91;;;17.71;41.58
34177;BME280;20450;49.074;9.158;2024-03-02T12:13:03;98471.09;;;17.48;42.71
34177;BME280;20450;49.074;9.158;2024-03-02T12:15:33;98468.56;;;17.56;43.12
34177;BME280;20450;49.074;9.158;2024-03-02T12:18:01;98465.59;;;17.53;43.56
34177;BME280;20450;49.074;9.158;2024-03-02T12:20:30;98454.75;;;17.72;43.38
34177;BME280;20450;49.074;9.158;2024-03-02T12:23:02;98473.84;;;17.48;42.91
34177;BME280;20450;49.074;9.158;2024-03-02T12:25:31;98475.88;;;17.27;42.15
34177;BME280;20450;49.074;9.158;2024-03-02T12:28:00;98464.06;;;17.37;42.83
34177;BME280;20450;49.074;9.158;2024-03-02T12:30:31;98470.72;;;16.92;42.25
34177;BME280;20450;49.074;9.158;2024-03-02T12:33:04;98466.88;;;16.55;42.54
34177;BME280;20450;49.074;9.158;2024-03-02T12:35:32;98455.66;;;16.61;43.14
34177;BME280;20450;49.074;9.158;2024-03-02T12:38:01;98464.69;;;16.57;42.13
34177;BME280;20450;49.074;9.158;2024-03-02T12:40:28;98464.25;;;16.30;42.43
34177;BME280;20450;49.074;9.158;2024-03-02T12:42:57;98453.13;;;16.21;43.57
34177;BME280;20450;49.074;9.158;2024-03-02T12:45:24;98445.50;;;16.18;43.55
34177;BME280;20450;49.074;9.158;2024-03-02T12:47:52;98428.59;;;16.21;44.83
34177;BME280;20450;49.074;9.158;2024-03-02T12:50:20;98437.06;;;16.20;44.41
34177;BME280;20450;49.074;9.158;2024-03-02T12:52:52;98452.19;;;16.51;42.08
34177;BME280;20450;49.074;9.158;2024-03-02T12:55:20;98448.88;;;15.95;43.49
34177;BME280;20450;49.074;9.158;2024-03-02T12:57:49;98446.97;;;16.01;43.25
34177;BME280;20450;49.074;9.158;2024-03-02T13:00:18;98444.47;;;16.04;43.39
34177;BME280;20450;49.074;9.158;2024-03-02T13:02:47;98444.78;;;15.98;43.16
34177;BME280;20450;49.074;9.158;2024-03-02T13:05:14;98438.06;;;16.44;42.91
34177;BME280;20450;49.074;9.158;2024-03-02T13:07:42;98444.03;;;16.41;43.22
34177;BME280;20450;49.074;9.158;2024-03-02T13:10:08;98416.66;;;16.61;44.35
34177;BME280;20450;49.074;9.158;2024-03-02T13:12:37;98435.53;;;16.52;43.48